McRoberts, Kentucky
Current Conditions -  °F | °C
As of 12:35 PM on Tuesday 21 Oct 2014 (Local Time) from KLNP Reporting Station
Overcast Overcast  
Wind Chill: 52°   Ceiling: 3800
Heat Index: 52°   Visibility: 10mi
Dew Point: 41°   Wind: 10mph
Humidity: 67%   Direction: 300°WNW
Pressure: 30.02"   Gusts: 20mph
Location:  37.21°N, 82.67°W
Report Text: KLNP 211635Z AUTO 30009G17KT 10SM SCT023 SCT029 OVC038 11/05 A3002 RMK AO2
Loading
Personal Weather Stations






























Interactive Weather Map
Tropical Storm Tracking
New forecast layout! Learn more

10-Day Weather Forecast

Advertisements
Track Severe Weather on mobile